Robert IV — WDC3892 — position and weather

sailwx.info

Track history (hours):
 
Tides and Currents Weather Stations Pressure Air Temp Water Temp Dewpoint Dewpoint Depression Visibility Wind Speed Wind Dir Waves Ship Positions

Robert IV

Owner: HENRY MARINE SERVICE INC, STATEN ISLAND, NY. More information available from US FCC via Universal Licensing System and Coast Guard Vessel Documentation Center.

Last reported at 2018-Jul-18 20:19 UTC. Time now 2018-Jul-23 07:39 UTC.
Position N 40°39' W 074°11'.

Type: Tug. MMSI: 367015880.

Date/timePositionNaut miles runAvg speedWind from/ knotsBaromVisibWave heightAir tempDewpointWater temp
2018-Jul-18 20:19N 40°39' W 074°11'2 6.7
2018-Jul-18 20:00N 40°39' W 074°08'1 1.3
2018-Jul-18 19:17N 40°39' W 074°07'1 3.4
2018-Jul-18 19:00N 40°39' W 074°06'3 6.4
2018-Jul-18 18:30N 40°41' W 074°03'3 6.1
2018-Jul-18 18:00N 40°44' W 074°01'4 1.2
2018-Jul-18 14:56N 40°47' W 073°60'2 4.9
2018-Jul-18 14:30N 40°45' W 074°01'5 4.7
2018-Jul-18 13:30N 40°41' W 074°03'3 5.5
2018-Jul-18 12:59N 40°39' W 074°06'3 5.2
2018-Jul-18 12:29N 40°38' W 074°09'2 0.5
2018-Jul-18 08:48N 40°38' W 074°12'1 3.7
2018-Jul-18 08:28N 40°39' W 074°10'2 4.8
2018-Jul-18 07:59N 40°39' W 074°07'2 4.2
2018-Jul-18 07:30N 40°39' W 074°04'3 6.3
2018-Jul-18 07:00N 40°42' W 074°02'3 6.0
2018-Jul-18 06:30N 40°45' W 074°01'0 0.1
2018-Jul-18 03:02N 40°45' W 074°01'0 7.6
2018-Jul-18 03:00N 40°45' W 074°01'4 7.3
2018-Jul-18 02:30N 40°41' W 074°02'3 6.6
2018-Jul-18 02:00N 40°39' W 074°06'1 0.1
2018-Jul-17 12:46N 40°39' W 074°07'2 8.0
2018-Jul-17 12:30N 40°39' W 074°05'2 3.6
2018-Jul-17 12:00N 40°40' W 074°03'0 0.4
2018-Jul-17 11:30N 40°41' W 074°03'3 6.7
2018-Jul-17 11:00N 40°44' W 074°01'1 1.7
2018-Jul-17 10:30N 40°43' W 074°02'1 2.7
2018-Jul-17 10:00N 40°42' W 074°02'0 0.1
2018-Jul-17 09:30N 40°42' W 074°02'1 2.2
2018-Jul-17 09:00N 40°41' W 074°03'1 2.5
2018-Jul-17 08:30N 40°40' W 074°04'1 2.6
2018-Jul-17 08:00N 40°39' W 074°05'2 0.2
2018-Jul-16 18:45N 40°39' W 074°07'0 1.1
2018-Jul-16 18:21N 40°39' W 074°07'0 0.0
2018-Jul-16 18:00N 40°39' W 074°07'0 0.4
2018-Jul-16 17:29N 40°39' W 074°07'0 0.1
2018-Jul-16 16:55N 40°39' W 074°07'0 0.0
2018-Jul-16 16:28N 40°39' W 074°07'0 0.3
2018-Jul-16 15:45N 40°39' W 074°07'9 2.8
2018-Jul-16 12:23N 40°31' W 074°15'0 0.0
2018-Jul-16 11:59N 40°31' W 074°15'0 0.0
2018-Jul-14 09:51N 40°31' W 074°15'0 0.0
2018-Jul-14 09:30N 40°31' W 074°15'0 0.0
2018-Jul-14 09:00N 40°31' W 074°15'0 0.0
2018-Jul-14 08:30N 40°31' W 074°15'0 0.0
2018-Jul-14 08:00N 40°31' W 074°15'0 0.0
2018-Jul-14 07:30N 40°31' W 074°15'0 0.0
2018-Jul-14 07:00N 40°31' W 074°15'0 0.0
2018-Jul-14 06:30N 40°31' W 074°15'0 0.0
2018-Jul-14 05:59N 40°31' W 074°15'0 0.0
2018-Jul-14 05:28N 40°31' W 074°15'7 1.7
2018-Jul-14 01:09N 40°38' W 074°12'2 5.9
2018-Jul-14 00:48N 40°39' W 074°10'2 2.4
2018-Jul-14 00:02N 40°39' W 074°07'0 6.3
2018-Jul-13 23:59N 40°39' W 074°07'3 6.8
2018-Jul-13 23:30N 40°41' W 074°03'3 5.9
2018-Jul-13 23:00N 40°43' W 074°01'3 6.4
2018-Jul-13 22:28N 40°46' W 074°00'0 0.0
2018-Jul-13 14:00N 40°47' W 074°00'4 7.7
2018-Jul-13 13:31N 40°43' W 074°02'3 7.0
2018-Jul-13 13:00N 40°40' W 074°04'3 5.6
2018-Jul-13 12:30N 40°39' W 074°07'3 5.6
2018-Jul-13 11:54N 40°38' W 074°12'0 0.0
2018-Jul-13 10:55N 40°38' W 074°12'0 0.0
2018-Jul-13 10:20N 40°38' W 074°12'0 0.0
2018-Jul-13 10:00N 40°38' W 074°12'1 2.1
2018-Jul-13 09:29N 40°39' W 074°10'2 4.2
2018-Jul-13 09:00N 40°39' W 074°08'2 4.9
2018-Jul-13 08:30N 40°39' W 074°05'2 4.0
2018-Jul-13 08:00N 40°41' W 074°03'3 5.2
2018-Jul-13 07:30N 40°43' W 074°02'2 3.7
2018-Jul-13 07:00N 40°45' W 074°01'2 4.1
2018-Jul-13 06:30N 40°47' W 074°00'3 5.4
2018-Jul-13 06:00N 40°49' W 073°58'2 4.8
2018-Jul-13 05:30N 40°51' W 073°57'2 1.0
2018-Jul-13 02:58N 40°49' W 073°58'4 8.5
2018-Jul-13 02:30N 40°46' W 074°01'4 8.1
2018-Jul-13 02:00N 40°42' W 074°02'4 7.3
2018-Jul-13 01:30N 40°39' W 074°05'  
Track history (hours):
 
Tides and Currents Weather Stations Pressure Air Temp Water Temp Dewpoint Dewpoint Depression Visibility Wind Speed Wind Dir Waves Ship Positions

Robert IV

Owner: HENRY MARINE SERVICE INC, STATEN ISLAND, NY. More information available from US FCC via Universal Licensing System and Coast Guard Vessel Documentation Center.

Last reported at 2018-Jul-18 20:19 UTC. Time now 2018-Jul-23 07:39 UTC.
Position N 40°39' W 074°11'.

Type: Tug. MMSI: 367015880.

Date/timePositionNaut miles runAvg speedWind from/ knotsBaromVisibWave heightAir tempDewpointWater temp
2018-Jul-18 20:19N 40°39' W 074°11'2 6.7
2018-Jul-18 20:00N 40°39' W 074°08'1 1.3
2018-Jul-18 19:17N 40°39' W 074°07'1 3.4
2018-Jul-18 19:00N 40°39' W 074°06'3 6.4
2018-Jul-18 18:30N 40°41' W 074°03'3 6.1
2018-Jul-18 18:00N 40°44' W 074°01'4 1.2
2018-Jul-18 14:56N 40°47' W 073°60'2 4.9
2018-Jul-18 14:30N 40°45' W 074°01'5 4.7
2018-Jul-18 13:30N 40°41' W 074°03'3 5.5
2018-Jul-18 12:59N 40°39' W 074°06'3 5.2
2018-Jul-18 12:29N 40°38' W 074°09'2 0.5
2018-Jul-18 08:48N 40°38' W 074°12'1 3.7
2018-Jul-18 08:28N 40°39' W 074°10'2 4.8
2018-Jul-18 07:59N 40°39' W 074°07'2 4.2
2018-Jul-18 07:30N 40°39' W 074°04'3 6.3
2018-Jul-18 07:00N 40°42' W 074°02'3 6.0
2018-Jul-18 06:30N 40°45' W 074°01'0 0.1
2018-Jul-18 03:02N 40°45' W 074°01'0 7.6
2018-Jul-18 03:00N 40°45' W 074°01'4 7.3
2018-Jul-18 02:30N 40°41' W 074°02'3 6.6
2018-Jul-18 02:00N 40°39' W 074°06'1 0.1
2018-Jul-17 12:46N 40°39' W 074°07'2 8.0
2018-Jul-17 12:30N 40°39' W 074°05'2 3.6
2018-Jul-17 12:00N 40°40' W 074°03'0 0.4
2018-Jul-17 11:30N 40°41' W 074°03'3 6.7
2018-Jul-17 11:00N 40°44' W 074°01'1 1.7
2018-Jul-17 10:30N 40°43' W 074°02'1 2.7
2018-Jul-17 10:00N 40°42' W 074°02'0 0.1
2018-Jul-17 09:30N 40°42' W 074°02'1 2.2
2018-Jul-17 09:00N 40°41' W 074°03'1 2.5
2018-Jul-17 08:30N 40°40' W 074°04'1 2.6
2018-Jul-17 08:00N 40°39' W 074°05'2 0.2
2018-Jul-16 18:45N 40°39' W 074°07'0 1.1
2018-Jul-16 18:21N 40°39' W 074°07'0 0.0
2018-Jul-16 18:00N 40°39' W 074°07'0 0.4
2018-Jul-16 17:29N 40°39' W 074°07'0 0.1
2018-Jul-16 16:55N 40°39' W 074°07'0 0.0
2018-Jul-16 16:28N 40°39' W 074°07'0 0.3
2018-Jul-16 15:45N 40°39' W 074°07'9 2.8
2018-Jul-16 12:23N 40°31' W 074°15'0 0.0
2018-Jul-16 11:59N 40°31' W 074°15'0 0.0
2018-Jul-14 09:51N 40°31' W 074°15'0 0.0
2018-Jul-14 09:30N 40°31' W 074°15'0 0.0
2018-Jul-14 09:00N 40°31' W 074°15'0 0.0
2018-Jul-14 08:30N 40°31' W 074°15'0 0.0
2018-Jul-14 08:00N 40°31' W 074°15'0 0.0
2018-Jul-14 07:30N 40°31' W 074°15'0 0.0
2018-Jul-14 07:00N 40°31' W 074°15'0 0.0
2018-Jul-14 06:30N 40°31' W 074°15'0 0.0
2018-Jul-14 05:59N 40°31' W 074°15'0 0.0
2018-Jul-14 05:28N 40°31' W 074°15'7 1.7
2018-Jul-14 01:09N 40°38' W 074°12'2 5.9
2018-Jul-14 00:48N 40°39' W 074°10'2 2.4
2018-Jul-14 00:02N 40°39' W 074°07'0 6.3
2018-Jul-13 23:59N 40°39' W 074°07'3 6.8
2018-Jul-13 23:30N 40°41' W 074°03'3 5.9
2018-Jul-13 23:00N 40°43' W 074°01'3 6.4
2018-Jul-13 22:28N 40°46' W 074°00'0 0.0
2018-Jul-13 14:00N 40°47' W 074°00'4 7.7
2018-Jul-13 13:31N 40°43' W 074°02'3 7.0
2018-Jul-13 13:00N 40°40' W 074°04'3 5.6
2018-Jul-13 12:30N 40°39' W 074°07'3 5.6
2018-Jul-13 11:54N 40°38' W 074°12'0 0.0
2018-Jul-13 10:55N 40°38' W 074°12'0 0.0
2018-Jul-13 10:20N 40°38' W 074°12'0 0.0
2018-Jul-13 10:00N 40°38' W 074°12'1 2.1
2018-Jul-13 09:29N 40°39' W 074°10'2 4.2
2018-Jul-13 09:00N 40°39' W 074°08'2 4.9
2018-Jul-13 08:30N 40°39' W 074°05'2 4.0
2018-Jul-13 08:00N 40°41' W 074°03'3 5.2
2018-Jul-13 07:30N 40°43' W 074°02'2 3.7
2018-Jul-13 07:00N 40°45' W 074°01'2 4.1
2018-Jul-13 06:30N 40°47' W 074°00'3 5.4
2018-Jul-13 06:00N 40°49' W 073°58'2 4.8
2018-Jul-13 05:30N 40°51' W 073°57'2 1.0
2018-Jul-13 02:58N 40°49' W 073°58'4 8.5
2018-Jul-13 02:30N 40°46' W 074°01'4 8.1
2018-Jul-13 02:00N 40°42' W 074°02'4 7.3
2018-Jul-13 01:30N 40°39' W 074°05'  

Dump ship's entire track history